TimePDT,TemperatureF,Dew PointF,Humidity,Sea Level PressureIn,VisibilityMPH,Wind Direction,Wind SpeedMPH,Gust SpeedMPH,PrecipitationIn,Events,Conditions,WindDirDegrees,DateUTC
12:51 AM,64.0,33.1,31,30.06,10.0,North,9.2,16.1,N/A,,Clear,350,2012-10-25 07:51:00
1:51 AM,64.0,34.0,33,30.06,10.0,North,6.9,-,N/A,,Clear,10,2012-10-25 08:51:00
2:51 AM,64.0,30.9,29,30.06,10.0,NNW,4.6,-,N/A,,Clear,340,2012-10-25 09:51:00
3:51 AM,64.0,33.1,31,30.04,10.0,NW,10.4,-,N/A,,Clear,310,2012-10-25 10:51:00
4:51 AM,62.1,33.1,34,30.04,10.0,Calm,Calm,-,N/A,,Clear,0,2012-10-25 11:51:00
5:51 AM,64.9,30.0,27,30.04,10.0,Variable,5.8,-,N/A,,Clear,0,2012-10-25 12:51:00
6:51 AM,66.0,30.9,27,30.05,10.0,Variable,4.6,-,N/A,,Clear,0,2012-10-25 13:51:00
7:51 AM,66.9,32.0,27,30.06,10.0,Variable,5.8,-,N/A,,Clear,0,2012-10-25 14:51:00
8:51 AM,71.1,33.1,25,30.07,10.0,Variable,3.5,-,N/A,,Clear,0,2012-10-25 15:51:00
9:51 AM,73.0,32.0,22,30.07,10.0,North,8.1,-,N/A,,Clear,360,2012-10-25 16:51:00
10:51 AM,77.0,32.0,19,30.05,10.0,North,8.1,19.6,N/A,,Clear,360,2012-10-25 17:51:00
11:51 AM,81.0,34.0,18,30.04,10.0,Variable,5.8,16.1,N/A,,Clear,0,2012-10-25 18:51:00
12:51 PM,84.9,35.1,17,30.01,10.0,Variable,4.6,-,N/A,,Clear,0,2012-10-25 19:51:00
1:10 PM,82.4,37.4,20,30.00,10.0,Variable,5.8,-,N/A,,Clear,0,2012-10-25 20:10:00
1:51 PM,75.9,46.0,35,29.98,10.0,West,10.4,18.4,N/A,,Clear,260,2012-10-25 20:51:00
2:51 PM,75.9,51.1,42,29.94,10.0,South,10.4,-,N/A,,Clear,190,2012-10-25 21:51:00
3:51 PM,84.9,39.0,20,29.93,10.0,NNW,10.4,16.1,N/A,,Clear,330,2012-10-25 22:51:00
4:51 PM,77.0,48.9,37,29.92,10.0,WSW,6.9,-,N/A,,Clear,250,2012-10-25 23:51:00
6:51 PM,75.9,37.0,24,29.94,10.0,NNW,11.5,23.0,N/A,,Clear,330,2012-10-26 01:51:00
7:51 PM,73.9,37.0,26,29.95,10.0,NNW,9.2,19.6,N/A,,Clear,340,2012-10-26 02:51:00
9:51 PM,72.0,36.0,27,29.95,10.0,North,13.8,21.9,N/A,,Clear,360,2012-10-26 04:51:00
10:51 PM,71.1,36.0,28,29.95,10.0,North,13.8,24.2,N/A,,Clear,360,2012-10-26 05:51:00
11:51 PM,71.1,34.0,26,29.96,10.0,NNW,9.2,-,N/A,,Clear,340,2012-10-26 06:51:00